createdAt,value
2023-01-22T02:11:42.265Z,101491.29
2023-01-22T02:14:18.174Z,101516.66
2023-01-22T02:16:45.933Z,101515.75
2023-01-22T02:19:13.876Z,101516.82
2023-01-22T02:21:42.885Z,101517.44
2023-01-22T02:24:15.208Z,101513.40
2023-01-22T02:26:44.688Z,101515.96
2023-01-22T02:29:15.642Z,101510.69
2023-01-22T02:31:46.822Z,101512.86
2023-01-22T02:34:24.322Z,101513.86
2023-01-22T02:36:52.731Z,101510.15
2023-01-22T02:39:31.984Z,101511.15
2023-01-22T02:42:07.394Z,101515.27
2023-01-22T02:44:35.651Z,101514.70
2023-01-22T02:47:03.632Z,101517.77
2023-01-22T02:49:31.358Z,101523.35
2023-01-22T02:51:58.773Z,101523.05
2023-01-22T02:54:26.898Z,101524.45
2023-01-22T02:56:55.751Z,101523.07
2023-01-22T02:59:26.413Z,101523.42
2023-01-22T03:01:56.957Z,101526.80
2023-01-22T03:04:24.529Z,101526.03
2023-01-22T03:06:51.856Z,101521.95
2023-01-22T03:09:19.212Z,101527.04
2023-01-22T03:11:47.437Z,101527.02
2023-01-22T03:14:43.226Z,101530.41
2023-01-22T03:17:29.828Z,101531.55
2023-01-22T03:20:18.429Z,101536.58
2023-01-22T03:22:47.734Z,101533.82
2023-01-22T03:25:15.517Z,101533.98
2023-01-22T03:28:03.962Z,101538.89
2023-01-22T03:30:35.370Z,101541.17
2023-01-22T03:33:02.983Z,101543.05
2023-01-22T03:35:30.857Z,101541.31
2023-01-22T03:38:13.521Z,101544.14
2023-01-22T03:40:41.030Z,101546.70
2023-01-22T03:43:09.226Z,101547.08
2023-01-22T03:45:38.622Z,101552.66
2023-01-22T03:48:06.404Z,101560.30
2023-01-22T03:50:37.680Z,101561.77
2023-01-22T03:53:06.737Z,101559.52
2023-01-22T03:55:34.468Z,101557.48
2023-01-22T03:58:03.272Z,101562.55
2023-01-22T04:00:30.889Z,101560.98
2023-01-22T04:03:00.402Z,101563.59
2023-01-22T04:05:29.298Z,101562.33
2023-01-22T04:07:57.239Z,101558.83
2023-01-22T04:10:29.369Z,101563.34
2023-01-22T04:12:57.071Z,101564.54
2023-01-22T04:15:24.540Z,101569.00
2023-01-22T04:17:53.876Z,101571.71
2023-01-22T04:20:36.085Z,101573.83
2023-01-22T04:23:21.118Z,101580.80
2023-01-22T04:25:49.566Z,101584.77
2023-01-22T04:28:17.898Z,101587.29
2023-01-22T04:30:51.169Z,101591.27
2023-01-22T04:33:41.253Z,101598.73
2023-01-22T04:36:13.157Z,101604.50
2023-01-22T04:38:40.661Z,101611.84
2023-01-22T04:41:09.187Z,101612.33
2023-01-22T04:43:37.347Z,101609.65
2023-01-22T04:46:04.978Z,101610.48
2023-01-22T04:48:34.418Z,101614.03
2023-01-22T04:51:02.364Z,101609.02
2023-01-22T04:53:31.833Z,101606.92
2023-01-22T04:55:59.312Z,101610.89
2023-01-22T04:58:27.852Z,101617.17
2023-01-22T05:00:57.036Z,101619.83
2023-01-22T05:03:24.601Z,101623.88
2023-01-22T05:05:54.638Z,101625.14
2023-01-22T05:08:22.835Z,101622.47
2023-01-22T05:10:51.401Z,101626.66
2023-01-22T05:13:27.841Z,101633.30
2023-01-22T05:15:55.867Z,101635.02
2023-01-22T05:18:26.042Z,101641.10
2023-01-22T05:20:54.224Z,101641.90
2023-01-22T05:23:24.356Z,101638.27
2023-01-22T05:25:51.753Z,101641.82
2023-01-22T05:28:26.661Z,101643.77
2023-01-22T05:31:08.237Z,101643.08
2023-01-22T05:33:48.097Z,101646.64
2023-01-22T05:36:16.754Z,101652.58
2023-01-22T05:38:46.427Z,101654.65
2023-01-22T05:41:14.658Z,101657.55
2023-01-22T05:43:43.320Z,101656.52
2023-01-22T05:46:16.242Z,101660.36
2023-01-22T05:48:52.692Z,101662.50
2023-01-22T05:51:32.524Z,101667.64
2023-01-22T05:54:00.316Z,101671.48
2023-01-22T05:56:31.441Z,101673.44
2023-01-22T05:59:01.641Z,101674.48
2023-01-22T06:01:30.082Z,101681.77
2023-01-22T06:03:59.114Z,101683.16
2023-01-22T06:06:29.247Z,101681.04
2023-01-22T06:08:58.072Z,101686.08
2023-01-22T06:11:27.212Z,101689.95
2023-01-22T06:13:54.590Z,101693.56
2023-01-22T06:16:23.933Z,101690.54
2023-01-22T06:18:57.952Z,101695.45
2023-01-22T06:21:27.420Z,101701.20
2023-01-22T06:23:55.067Z,101705.21
2023-01-22T06:26:23.385Z,101709.08
2023-01-22T06:28:51.318Z,101710.52
2023-01-22T06:31:18.789Z,101716.09
2023-01-22T06:33:46.580Z,101718.89
2023-01-22T06:36:15.009Z,101720.74
2023-01-22T06:38:42.695Z,101721.97
2023-01-22T06:41:14.187Z,101724.52
2023-01-22T06:43:44.721Z,101733.36
2023-01-22T06:46:12.710Z,101743.65
2023-01-22T06:49:02.347Z,101746.16
2023-01-22T06:51:30.251Z,101749.52
2023-01-22T06:53:59.088Z,101750.70
2023-01-22T06:56:27.909Z,101751.95
2023-01-22T06:58:56.921Z,101760.91
2023-01-22T07:01:25.746Z,101762.87
2023-01-22T07:03:53.532Z,101757.97
2023-01-22T07:06:21.407Z,101758.85
2023-01-22T07:08:50.583Z,101766.23
2023-01-22T07:11:17.971Z,101767.33
2023-01-22T07:13:45.389Z,101766.63
2023-01-22T07:16:13.645Z,101763.51
2023-01-22T07:18:42.541Z,101763.48
2023-01-22T07:21:10.549Z,101763.71
2023-01-22T07:23:37.988Z,101762.92
2023-01-22T07:26:05.495Z,101760.86
2023-01-22T07:28:33.148Z,101764.20
2023-01-22T07:31:03.099Z,101766.86
2023-01-22T07:33:30.959Z,101764.86
2023-01-22T07:35:58.628Z,101769.51
2023-01-22T10:09:41.168Z,101864.72
2023-01-22T10:12:13.800Z,101880.11
2023-01-22T10:14:42.274Z,101874.48
2023-01-22T10:17:17.528Z,101870.88
2023-01-22T10:19:47.087Z,101866.27
2023-01-22T10:22:22.895Z,101861.02
2023-01-22T10:24:51.047Z,101857.60
2023-01-22T10:27:43.061Z,101853.54
2023-01-22T10:30:17.801Z,101854.12
2023-01-22T10:32:46.333Z,101850.52
2023-01-22T10:35:17.663Z,101847.77
2023-01-22T10:37:47.297Z,101850.73
2023-01-22T10:40:43.901Z,101853.22
2023-01-22T10:43:13.748Z,101854.80
2023-01-22T10:45:59.987Z,101852.54
2023-01-22T10:48:27.765Z,101852.84
2023-01-22T10:51:16.315Z,101855.70
2023-01-22T10:53:52.953Z,101858.53
2023-01-22T10:56:38.348Z,101860.38
2023-01-22T10:59:26.034Z,101859.79
2023-01-22T11:02:12.033Z,101866.98
2023-01-22T11:04:39.577Z,101858.11
2023-01-22T11:07:34.371Z,101855.63
2023-01-22T11:10:24.442Z,101853.23
2023-01-22T11:13:10.975Z,101859.03
2023-01-22T11:15:58.457Z,101857.05
2023-01-22T11:18:59.438Z,101861.38
2023-01-22T11:21:35.600Z,101859.71
2023-01-22T11:24:32.124Z,101861.66
2023-01-22T11:27:04.448Z,101863.93
2023-01-22T11:29:50.041Z,101863.90
2023-01-22T11:32:34.607Z,101857.67
2023-01-22T11:35:28.836Z,101863.47
2023-01-22T11:38:18.107Z,101870.08
2023-01-22T11:41:08.522Z,101868.95
2023-01-22T11:44:10.243Z,101869.20
2023-01-22T11:46:53.441Z,101870.74
2023-01-22T11:49:23.954Z,101872.66
2023-01-22T11:52:01.761Z,101872.03
2023-01-22T11:54:36.164Z,101874.33
2023-01-22T11:57:16.650Z,101874.59
2023-01-22T12:00:10.921Z,101874.30
2023-01-22T12:03:12.564Z,101874.92
2023-01-22T12:05:46.596Z,101878.51
2023-01-22T12:08:52.192Z,101879.71
2023-01-22T12:11:57.673Z,101877.85
2023-01-22T12:14:32.175Z,101879.73
2023-01-22T12:17:12.033Z,101880.20
2023-01-22T12:20:08.862Z,101881.04
2023-01-22T12:22:44.500Z,101882.91
2023-01-22T12:25:33.707Z,101881.60
2023-01-22T12:28:35.354Z,101880.59
2023-01-22T12:31:17.449Z,101881.96
2023-01-22T12:33:46.442Z,101883.80
2023-01-22T12:36:16.952Z,101887.02
2023-01-22T12:39:09.299Z,101885.21
2023-01-22T12:41:49.173Z,101891.64
2023-01-22T12:44:22.420Z,101895.14
2023-01-22T12:47:08.792Z,101895.83
2023-01-22T12:49:49.108Z,101896.35
2023-01-22T12:52:48.015Z,101895.54
2023-01-22T12:55:24.000Z,101895.19
2023-01-22T12:57:51.559Z,101898.47
2023-01-22T13:00:32.276Z,101902.23
2023-01-22T13:03:00.157Z,101903.88
2023-01-22T13:05:30.706Z,101909.11
2023-01-22T13:08:03.700Z,101910.10
2023-01-22T13:10:33.581Z,101912.83
2023-01-22T13:13:13.724Z,101911.65
2023-01-22T13:15:41.347Z,101913.61
2023-01-22T13:18:24.402Z,101917.11
2023-01-22T13:21:08.496Z,101915.65
2023-01-22T13:23:46.685Z,101919.98
2023-01-22T13:26:20.391Z,101921.06
2023-01-22T13:29:03.755Z,101925.31
2023-01-22T13:31:31.540Z,101930.58
2023-01-22T13:34:01.169Z,101929.49
2023-01-22T13:36:29.470Z,101929.63
2023-01-22T13:38:58.831Z,101926.77
2023-01-22T13:41:37.113Z,101929.96
2023-01-22T13:44:05.521Z,101934.30
2023-01-22T13:46:36.732Z,101937.66
2023-01-22T13:49:11.712Z,101927.37
2023-01-22T13:51:39.551Z,101930.79
2023-01-22T13:54:07.626Z,101933.63
2023-01-22T13:56:35.535Z,101935.41
2023-01-22T13:59:28.081Z,101939.80
2023-01-22T14:01:55.856Z,101946.48
2023-01-22T14:04:37.649Z,101949.55
2023-01-22T14:07:05.845Z,101954.42
2023-01-22T14:09:38.227Z,101953.88
2023-01-22T14:12:15.487Z,101956.73
2023-01-22T14:14:43.931Z,101960.08
2023-01-22T14:17:34.439Z,101968.75
2023-01-22T14:20:02.629Z,101973.42
2023-01-22T14:22:30.209Z,101977.41
2023-01-22T14:24:58.081Z,101982.51
2023-01-22T14:27:39.075Z,101980.76
2023-01-22T14:30:07.981Z,101976.93
2023-01-22T14:32:35.780Z,101979.32
2023-01-22T14:35:03.497Z,101982.68
2023-01-22T14:37:31.054Z,101982.26
2023-01-22T14:39:58.702Z,101990.59
2023-01-22T14:42:28.545Z,101988.77
2023-01-22T14:44:56.235Z,101989.49
2023-01-22T14:47:23.978Z,101996.79
2023-01-22T14:49:51.711Z,101995.23
2023-01-22T14:52:19.478Z,101993.45
2023-01-22T14:54:47.198Z,101999.33
2023-01-22T14:57:14.958Z,102002.89
2023-01-22T14:59:42.857Z,102007.48
2023-01-22T15:02:11.281Z,102010.94
2023-01-22T15:04:42.886Z,102013.17
2023-01-22T15:07:10.761Z,102019.99
2023-01-22T15:09:38.989Z,102019.50
2023-01-22T15:12:07.259Z,102020.82
2023-01-22T15:14:35.085Z,102021.45
2023-01-22T15:17:02.791Z,102017.38
2023-01-22T15:19:38.947Z,102018.08
2023-01-22T15:22:08.967Z,102014.86
2023-01-22T15:24:36.759Z,102018.09
2023-01-22T15:27:04.458Z,102019.95
2023-01-22T15:29:32.329Z,102022.59
2023-01-22T15:32:00.163Z,102021.45
2023-01-22T15:34:27.959Z,102020.09
2023-01-22T15:36:55.674Z,102024.14
2023-01-22T15:39:23.400Z,102029.17
2023-01-22T15:41:51.154Z,102028.67
2023-01-22T15:44:18.919Z,102026.34
2023-01-22T15:46:46.853Z,102030.86
2023-01-22T15:49:14.629Z,102030.17
2023-01-22T15:51:42.620Z,102028.94
2023-01-22T15:54:14.680Z,102027.66
2023-01-22T15:56:42.598Z,102030.85
2023-01-22T15:59:11.205Z,102035.98
2023-01-22T16:01:39.264Z,102032.52
2023-01-22T16:04:07.169Z,102033.48
2023-01-22T16:06:35.154Z,102034.14
2023-01-22T16:09:03.940Z,102032.81
2023-01-22T16:11:33.359Z,102031.33
2023-01-22T16:14:01.290Z,102034.48
2023-01-22T16:16:33.601Z,102036.57
2023-01-22T16:19:01.960Z,102039.37
2023-01-22T16:21:29.917Z,102037.59
2023-01-22T16:24:00.834Z,102038.27
2023-01-22T16:26:32.364Z,102040.09
2023-01-22T16:29:01.627Z,102043.65
2023-01-22T16:31:31.322Z,102042.10
2023-01-22T16:34:08.022Z,102043.69
2023-01-22T16:36:35.799Z,102043.89
2023-01-22T16:39:03.454Z,102044.92
2023-01-22T16:41:33.121Z,102047.48
2023-01-22T16:44:09.447Z,102046.89
2023-01-22T16:46:41.945Z,102048.94
2023-01-22T16:49:18.141Z,102049.52
2023-01-22T16:51:48.306Z,102047.05
2023-01-22T19:54:48.832Z,102176.34
2023-01-22T19:57:16.745Z,102184.79
2023-01-22T19:59:44.762Z,102177.10
2023-01-22T20:02:15.602Z,102172.23
2023-01-22T20:04:43.287Z,102169.59
2023-01-22T20:07:10.868Z,102170.08
2023-01-22T20:09:38.666Z,102163.19
2023-01-22T20:12:06.632Z,102165.16
2023-01-22T20:14:35.652Z,102161.50
2023-01-22T20:17:03.545Z,102160.74
2023-01-22T20:19:31.468Z,102158.83
2023-01-22T20:21:59.924Z,102158.17
2023-01-22T20:24:28.694Z,102155.02
2023-01-22T20:26:57.431Z,102158.55
2023-01-22T20:29:25.824Z,102160.22
2023-01-22T20:31:53.858Z,102161.30
2023-01-22T20:34:21.734Z,102162.90
2023-01-22T20:36:49.315Z,102161.53
2023-01-22T20:39:17.079Z,102161.85
2023-01-22T20:41:46.027Z,102159.11
2023-01-22T20:44:14.227Z,102162.33
2023-01-22T20:46:44.928Z,102161.31
2023-01-22T20:49:12.859Z,102165.53
2023-01-22T20:51:40.814Z,102171.37
2023-01-22T20:54:08.763Z,102170.48
2023-01-22T20:56:36.646Z,102167.70
2023-01-22T20:59:06.484Z,102169.70
2023-01-22T21:01:34.365Z,102173.02
2023-01-22T21:04:02.744Z,102171.77
2023-01-22T21:06:32.565Z,102178.45
2023-01-22T21:09:01.624Z,102183.23
2023-01-22T21:11:31.199Z,102179.95
2023-01-22T21:13:59.399Z,102179.23
2023-01-22T21:16:32.033Z,102176.23
2023-01-22T21:19:07.864Z,102179.02
2023-01-22T21:21:36.134Z,102182.05
2023-01-22T21:24:04.006Z,102186.23
2023-01-22T21:26:32.639Z,102185.90
2023-01-22T21:29:02.999Z,102186.46
2023-01-22T21:31:31.071Z,102189.35
2023-01-22T21:34:03.085Z,102188.73
2023-01-22T21:36:41.708Z,102192.04
2023-01-22T21:39:14.198Z,102191.59
2023-01-22T21:41:43.482Z,102193.32
2023-01-22T21:44:31.022Z,102192.29
2023-01-22T21:46:58.730Z,102188.50
2023-01-22T21:49:26.301Z,102189.14
2023-01-22T21:51:57.013Z,102183.52
2023-01-22T21:54:34.665Z,102183.50
2023-01-22T21:57:02.350Z,102179.56
2023-01-22T21:59:29.973Z,102176.58
2023-01-22T22:01:57.574Z,102177.18
2023-01-22T22:04:26.600Z,102176.63
2023-01-22T22:06:54.413Z,102176.50
2023-01-22T22:09:24.673Z,102175.54
2023-01-22T22:11:55.122Z,102175.14
2023-01-22T22:14:22.922Z,102177.91
2023-01-22T22:16:50.913Z,102180.85
2023-01-22T22:19:18.901Z,102181.94
2023-01-22T22:21:46.927Z,102181.20
2023-01-22T22:24:14.523Z,102184.48
2023-01-22T22:26:42.160Z,102184.67
2023-01-22T22:29:10.182Z,102183.63
2023-01-22T22:31:38.102Z,102182.81
2023-01-22T22:34:05.850Z,102187.56
2023-01-22T22:36:33.579Z,102191.66
2023-01-22T22:39:01.587Z,102189.95
2023-01-22T22:41:30.828Z,102189.11
2023-01-22T22:43:58.467Z,102191.95
2023-01-22T22:46:34.125Z,102190.33
2023-01-22T22:49:01.891Z,102187.99
2023-01-22T22:51:34.560Z,102190.51
2023-01-22T22:54:08.348Z,102188.34
2023-01-22T22:56:36.059Z,102191.94
2023-01-22T22:59:04.473Z,102191.42
2023-01-22T23:01:33.569Z,102194.20
2023-01-22T23:04:01.721Z,102192.70
2023-01-22T23:06:31.502Z,102192.74
2023-01-22T23:09:12.789Z,102192.01
2023-01-22T23:11:40.785Z,102189.42
2023-01-22T23:14:08.601Z,102189.99
2023-01-22T23:16:38.008Z,102191.09
2023-01-22T23:19:16.623Z,102188.45
2023-01-22T23:21:44.431Z,102185.66
2023-01-22T23:24:13.192Z,102192.60
2023-01-22T23:26:41.639Z,102190.38
2023-01-22T23:29:10.452Z,102198.20
2023-01-22T23:31:41.357Z,102202.16
2023-01-22T23:34:10.840Z,102201.38
2023-01-22T23:36:39.940Z,102201.74
2023-01-22T23:39:07.460Z,102203.23
2023-01-22T23:41:35.025Z,102201.86
2023-01-22T23:44:02.683Z,102199.95
2023-01-22T23:46:31.328Z,102200.50
2023-01-22T23:48:59.467Z,102200.45
2023-01-22T23:51:27.274Z,102198.38
2023-01-22T23:53:54.904Z,102196.41
2023-01-22T23:56:24.529Z,102200.00
